Time;durP1;ratioP1;P1;durP2;ratioP2;P2;SDS_P1;SDS_P2;PMS_P1;PMS_P2;Temp;Humidity;BMP_temperature;BMP_pressure;BME280_temperature;BME280_humidity;BME280_pressure;Samples;Min_cycle;Max_cycle;Signal;HPM_P1;HPM_P2
2023/06/09 00:00:38;;;;;;;4.60;2.80;;;13.30;99.90;;;;;;1890064;75;25300;-88
2023/06/09 00:06:13;;;;;;;4.07;2.70;;;13.20;99.90;;;;;;1932542;72;27583;-87
2023/06/09 00:09:04;;;;;;;4.60;3.10;;;13.20;99.90;;;;;;1893243;74;25249;-88
2023/06/09 00:11:51;;;;;;;4.93;2.70;;;13.20;99.90;;;;;;1889946;73;25769;-87
2023/06/09 00:14:41;;;;;;;3.07;2.60;;;13.10;99.90;;;;;;1902166;74;25236;-88
2023/06/09 00:17:30;;;;;;;4.77;2.60;;;13.10;99.90;;;;;;1906446;73;25192;-89
2023/06/09 00:20:20;;;;;;;4.70;2.80;;;13.10;99.90;;;;;;1906276;73;25333;-89
2023/06/09 00:23:10;;;;;;;8.20;2.90;;;13.00;99.90;;;;;;1907815;74;25142;-88
2023/06/09 00:25:58;;;;;;;8.40;3.13;;;13.00;99.90;;;;;;1900090;74;25718;-88
2023/06/09 00:28:47;;;;;;;4.97;2.70;;;12.90;99.90;;;;;;1903044;74;25288;-89
2023/06/09 00:31:36;;;;;;;4.97;2.80;;;12.80;99.90;;;;;;1912007;75;25304;-89
2023/06/09 00:34:25;;;;;;;10.63;2.73;;;12.70;99.90;;;;;;1912739;74;25284;-89
2023/06/09 00:37:14;;;;;;;6.27;2.90;;;12.60;99.90;;;;;;1913113;74;25236;-88
2023/06/09 00:40:04;;;;;;;4.57;2.53;;;12.50;99.90;;;;;;1904352;74;25254;-89
2023/06/09 00:42:53;;;;;;;8.50;3.20;;;12.50;99.90;;;;;;1863924;75;25249;-88
2023/06/09 00:48:21;;;;;;;4.30;2.70;;;12.40;99.90;;;;;;1932330;72;27302;-89
2023/06/09 00:51:11;;;;;;;4.20;2.53;;;12.40;99.90;;;;;;1910622;74;25253;-87
2023/06/09 00:54:00;;;;;;;6.60;2.73;;;12.40;99.90;;;;;;1917667;73;25323;-89
2023/06/09 00:56:50;;;;;;;6.53;2.70;;;12.40;99.90;;;;;;1902125;75;25198;-89
2023/06/09 00:59:40;;;;;;;5.07;2.50;;;12.20;99.90;;;;;;1903739;73;25137;-89
2023/06/09 01:02:29;;;;;;;3.90;2.50;;;12.30;99.90;;;;;;1864479;75;25305;-88
2023/06/09 01:05:18;;;;;;;7.10;2.63;;;12.20;99.90;;;;;;1898032;74;25229;-88
2023/06/09 01:10:54;;;;;;;3.90;2.60;;;12.10;99.90;;;;;;1946050;72;27630;-88
2023/06/09 01:13:47;;;;;;;6.50;2.63;;;12.10;99.90;;;;;;1889246;75;25719;-88
2023/06/09 01:16:38;;;;;;;5.17;2.60;;;12.00;99.90;;;;;;1891058;75;25734;-88
2023/06/09 01:19:32;;;;;;;8.10;2.60;;;12.00;99.90;;;;;;1891418;75;25179;-87
2023/06/09 01:22:27;;;;;;;5.87;3.00;;;12.00;99.90;;;;;;1890233;73;25231;-87
2023/06/09 01:25:34;;;;;;;8.53;2.87;;;12.00;99.90;;;;;;1892384;73;25223;-88
2023/06/09 01:28:24;;;;;;;4.40;2.57;;;11.90;99.90;;;;;;1895412;75;25920;-89
2023/06/09 01:31:16;;;;;;;6.63;2.90;;;11.80;99.90;;;;;;1900872;73;25262;-89
2023/06/09 01:34:05;;;;;;;4.57;2.73;;;11.60;99.90;;;;;;1892338;75;25708;-89
2023/06/09 01:39:38;;;;;;;10.20;2.83;;;11.70;99.90;;;;;;1936480;72;27012;-88
2023/06/09 01:45:19;;;;;;;4.00;2.77;;;11.70;99.90;;;;;;1948832;72;27064;-88
2023/06/09 01:48:12;;;;;;;6.13;2.50;;;11.80;99.90;;;;;;1931026;73;25833;-87
2023/06/09 01:51:05;;;;;;;3.53;2.53;;;11.70;99.90;;;;;;1917345;73;25266;-88
2023/06/09 01:53:59;;;;;;;6.17;3.10;;;11.70;99.90;;;;;;1936348;73;25205;-88
2023/06/09 01:56:49;;;;;;;8.10;2.90;;;11.60;99.90;;;;;;1926633;73;25186;-89
2023/06/09 01:59:41;;;;;;;6.87;2.60;;;11.70;99.90;;;;;;1922662;73;25281;-88
2023/06/09 02:02:31;;;;;;;6.03;2.47;;;11.60;99.90;;;;;;1921446;73;25924;-89
2023/06/09 02:05:22;;;;;;;3.57;2.50;;;11.60;99.90;;;;;;1923168;73;25284;-88
2023/06/09 02:08:11;;;;;;;4.93;2.60;;;11.50;99.90;;;;;;1921673;73;25797;-89
2023/06/09 02:11:00;;;;;;;4.30;2.40;;;11.50;99.90;;;;;;1932303;73;25731;-88
2023/06/09 02:13:54;;;;;;;4.80;2.33;;;11.40;99.90;;;;;;1920805;73;25278;-88
2023/06/09 02:16:43;;;;;;;3.37;2.30;;;11.50;99.90;;;;;;1926267;73;25184;-88
2023/06/09 02:19:35;;;;;;;5.27;2.37;;;11.50;99.90;;;;;;1921973;73;25733;-88
2023/06/09 02:22:23;;;;;;;3.63;2.40;;;11.50;99.90;;;;;;1917808;73;25180;-89
2023/06/09 02:25:12;;;;;;;4.17;2.50;;;11.40;99.90;;;;;;1923809;73;25722;-88
2023/06/09 02:30:45;;;;;;;6.70;2.47;;;11.30;99.90;;;;;;1939271;72;27070;-88
2023/06/09 02:33:34;;;;;;;5.10;3.33;;;11.30;99.90;;;;;;1893595;73;25266;-88
2023/06/09 02:36:23;;;;;;;5.23;2.70;;;11.20;99.90;;;;;;1895820;73;25210;-89
2023/06/09 02:39:14;;;;;;;3.93;2.40;;;11.20;99.90;;;;;;1893763;73;25211;-89
2023/06/09 02:42:05;;;;;;;6.70;2.63;;;11.10;99.90;;;;;;1866375;75;25716;-89
2023/06/09 02:44:54;;;;;;;3.90;2.70;;;11.00;99.90;;;;;;1878061;75;25226;-89
2023/06/09 02:47:42;;;;;;;7.53;2.40;;;10.90;99.90;;;;;;1883049;75;25707;-89
2023/06/09 02:50:31;;;;;;;4.10;2.40;;;10.80;99.90;;;;;;1873417;76;25230;-88
2023/06/09 02:53:20;;;;;;;4.10;2.43;;;10.70;99.90;;;;;;1874353;75;25296;-88
2023/06/09 02:56:10;;;;;;;4.07;2.67;;;10.70;99.90;;;;;;1882017;75;25259;-88
2023/06/09 02:58:59;;;;;;;3.97;2.27;;;10.60;99.90;;;;;;1880132;75;25283;-88
2023/06/09 03:01:47;;;;;;;3.77;2.70;;;10.50;99.90;;;;;;1878899;75;25297;-88
2023/06/09 03:07:20;;;;;;;5.37;2.80;;;10.50;99.90;;;;;;1934028;72;26988;-87
2023/06/09 03:10:11;;;;;;;3.13;2.63;;;10.50;99.90;;;;;;1896698;75;25730;-87
2023/06/09 03:12:59;;;;;;;3.53;2.37;;;10.50;99.90;;;;;;1880745;74;25261;-88
2023/06/09 03:18:28;;;;;;;5.87;2.53;;;10.80;99.90;;;;;;1933350;72;27569;-87
2023/06/09 03:21:18;;;;;;;3.23;2.30;;;11.10;99.90;;;;;;1890991;74;25312;-87
2023/06/09 03:24:09;;;;;;;3.60;2.30;;;11.50;99.90;;;;;;1870117;75;25345;-88
2023/06/09 03:26:58;;;;;;;3.17;2.37;;;12.00;99.90;;;;;;1829691;76;25258;-88
2023/06/09 03:29:46;;;;;;;5.80;2.10;;;12.50;99.90;;;;;;1905773;73;25859;-89
2023/06/09 03:32:35;;;;;;;4.47;2.10;;;13.20;99.90;;;;;;1910393;73;25210;-88
2023/06/09 03:35:24;;;;;;;5.30;2.30;;;13.20;99.90;;;;;;1860314;75;25412;-88
2023/06/09 03:38:12;;;;;;;4.13;2.30;;;13.30;99.90;;;;;;1827461;77;25829;-89
2023/06/09 03:41:00;;;;;;;4.73;2.20;;;13.60;99.90;;;;;;1830975;76;25372;-88
2023/06/09 03:43:49;;;;;;;5.87;2.50;;;14.00;99.90;;;;;;1828857;76;25780;-89
2023/06/09 03:46:41;;;;;;;5.63;2.13;;;13.90;99.90;;;;;;1833983;77;25307;-88
2023/06/09 03:49:29;;;;;;;2.77;2.07;;;14.00;99.90;;;;;;1837414;76;25650;-88
2023/06/09 03:54:58;;;;;;;3.17;2.20;;;14.40;99.90;;;;;;1888137;74;27353;-88
2023/06/09 03:57:46;;;;;;;3.33;2.20;;;14.80;99.90;;;;;;1837227;76;25244;-88
2023/06/09 04:00:35;;;;;;;4.50;2.00;;;14.70;99.90;;;;;;1842977;76;25277;-88
2023/06/09 04:03:24;;;;;;;2.80;2.10;;;14.30;99.90;;;;;;1825160;76;25204;-88
2023/06/09 04:06:13;;;;;;;3.30;2.10;;;14.60;99.90;;;;;;1823125;76;25718;-89
2023/06/09 04:09:03;;;;;;;2.43;1.93;;;14.60;99.90;;;;;;1844441;76;25175;-88
2023/06/09 04:11:52;;;;;;;2.13;1.97;;;15.20;99.90;;;;;;1832640;76;25289;-89
2023/06/09 04:14:40;;;;;;;2.43;2.00;;;15.80;99.90;;;;;;1836211;76;26031;-89
2023/06/09 04:17:28;;;;;;;3.20;2.17;;;15.70;99.90;;;;;;1823073;77;25737;-89
2023/06/09 04:20:22;;;;;;;4.13;2.00;;;15.30;99.90;;;;;;1837148;76;25371;-89
2023/06/09 04:23:08;;;;;;;3.67;2.03;;;14.40;99.90;;;;;;1827519;76;26549;-89
2023/06/09 04:25:57;;;;;;;2.63;1.87;;;14.90;99.90;;;;;;1830748;77;25214;-89
2023/06/09 04:28:45;;;;;;;4.07;1.90;;;14.90;99.90;;;;;;1830917;77;26699;-89
2023/06/09 04:31:34;;;;;;;2.97;2.00;;;14.20;99.90;;;;;;1841365;77;25229;-89
2023/06/09 04:34:25;;;;;;;3.37;2.10;;;14.30;99.90;;;;;;1837794;77;25622;-89
2023/06/09 04:39:55;;;;;;;2.07;1.90;;;15.00;99.90;;;;;;1934948;72;27132;-87
2023/06/09 04:42:44;;;;;;;1.70;1.60;;;15.30;99.90;;;;;;1874651;76;25764;-88
2023/06/09 04:45:35;;;;;;;3.50;1.60;;;15.30;99.90;;;;;;1856640;76;25703;-89
2023/06/09 04:48:24;;;;;;;4.83;1.90;;;15.00;99.90;;;;;;1883890;76;25236;-89
2023/06/09 04:51:16;;;;;;;1.73;1.63;;;15.10;99.90;;;;;;1877996;76;25176;-88
2023/06/09 04:54:03;;;;;;;2.20;1.70;;;15.40;99.90;;;;;;1876093;76;25217;-88
2023/06/09 04:56:52;;;;;;;1.80;1.70;;;15.20;99.90;;;;;;1881648;76;25381;-89
2023/06/09 04:59:41;;;;;;;3.07;1.87;;;15.40;99.90;;;;;;1876907;76;25323;-88
2023/06/09 05:02:29;;;;;;;1.90;1.63;;;15.00;99.90;;;;;;1880385;76;25288;-88
2023/06/09 05:07:59;;;;;;;1.53;1.30;;;15.60;99.90;;;;;;1933686;72;26969;-88
2023/06/09 05:10:48;;;;;;;1.90;1.80;;;15.90;99.90;;;;;;1899515;74;25278;-88
2023/06/09 05:16:16;;;;;;;3.03;1.70;;;15.10;99.90;;;;;;1947731;72;26985;-88
2023/06/09 05:19:06;;;;;;;3.00;1.63;;;14.90;99.90;;;;;;1913467;73;25228;-88
2023/06/09 05:21:56;;;;;;;3.20;1.60;;;15.20;99.90;;;;;;1895674;75;25251;-88
2023/06/09 05:24:46;;;;;;;2.17;1.60;;;15.70;99.90;;;;;;1913027;74;25689;-89
2023/06/09 05:27:34;;;;;;;1.40;1.30;;;15.70;99.90;;;;;;1901841;75;25199;-89
2023/06/09 05:30:23;;;;;;;2.47;1.60;;;15.40;99.90;;;;;;1903867;74;25252;-89
2023/06/09 05:33:12;;;;;;;2.33;1.53;;;15.50;99.90;;;;;;1908536;74;25205;-89
2023/06/09 05:36:01;;;;;;;3.50;1.50;;;15.40;99.90;;;;;;1906765;74;25273;-89
2023/06/09 05:38:57;;;;;;;2.37;1.50;;;14.90;99.90;;;;;;1902365;73;25694;-90
2023/06/09 05:46:16;;;;;;;5.47;1.50;;;14.70;99.90;;;;;;1909915;74;25174;-90
2023/06/09 06:19:36;;;;;;;1.40;1.30;;;17.00;99.90;;;;;;1903377;74;25270;-90
2023/06/09 06:23:21;;;;;;;1.83;1.60;;;17.40;99.90;;;;;;1953915;71;25249;-90
2023/06/09 06:55:35;;;;;;;3.47;1.30;;;17.00;99.90;;;;;;1831693;77;25356;-90
2023/06/09 07:06:35;;;;;;;1.87;1.30;;;17.30;99.90;;;;;;1824990;77;25245;-91
2023/06/09 07:17:18;;;;;;;16.10;1.50;;;17.90;99.90;;;;;;1866740;75;25221;-91
2023/06/09 08:02:50;;;;;;;1.40;1.20;;;17.80;99.90;;;;;;1903497;74;25240;-90
2023/06/09 08:17:49;;;;;;;1.53;1.23;;;19.00;99.90;;;;;;1917356;73;25312;-90
2023/06/09 08:51:43;;;;;;;1.37;1.17;;;18.10;99.90;;;;;;1831286;77;25229;-90
2023/06/09 09:10:02;;;;;;;1.07;1.07;;;18.40;99.90;;;;;;1869580;75;25234;-90
2023/06/09 09:17:29;;;;;;;1.40;1.20;;;18.10;99.90;;;;;;1852470;76;25209;-91
2023/06/09 09:42:54;;;;;;;4.33;1.20;;;19.70;99.90;;;;;;1894669;75;25787;-90
2023/06/09 09:46:07;;;;;;;1.40;1.23;;;20.40;99.90;;;;;;1865048;76;25204;-90
2023/06/09 09:49:01;;;;;;;0.80;0.80;;;19.70;99.90;;;;;;1893558;75;25239;-90
2023/06/09 09:55:55;;;;;;;1.10;1.10;;;18.80;99.90;;;;;;1886248;75;25258;-90
2023/06/09 10:07:02;;;;;;;2.20;1.00;;;19.50;99.90;;;;;;1903250;75;25179;-91
2023/06/09 10:13:18;;;;;;;3.17;1.10;;;20.50;99.90;;;;;;1955600;72;27454;-90
2023/06/09 10:16:32;;;;;;;3.03;1.20;;;20.20;99.90;;;;;;1934927;73;25245;-90
2023/06/09 10:19:33;;;;;;;3.70;1.07;;;20.20;99.90;;;;;;1934901;73;25218;-90
2023/06/09 10:23:27;;;;;;;1.13;1.00;;;20.30;99.90;;;;;;1921023;73;25278;-90
2023/06/09 10:29:58;;;;;;;1.00;1.00;;;19.80;99.90;;;;;;1931066;73;25791;-91
2023/06/09 10:33:19;;;;;;;2.03;1.20;;;19.60;99.90;;;;;;1907260;73;25215;-90
2023/06/09 10:36:51;;;;;;;1.70;1.17;;;19.80;99.90;;;;;;1930226;73;25257;-91
2023/06/09 10:43:03;;;;;;;0.90;0.90;;;20.10;99.90;;;;;;1960669;73;27031;-90
2023/06/09 10:46:07;;;;;;;2.00;1.13;;;20.40;99.90;;;;;;1944997;73;25281;-90
2023/06/09 10:52:47;;;;;;;13.10;1.27;;;19.90;99.90;;;;;;1860537;75;27201;-90
2023/06/09 10:55:42;;;;;;;1.00;1.00;;;19.20;99.90;;;;;;1779353;79;25248;-89
2023/06/09 10:59:03;;;;;;;1.30;1.20;;;19.60;99.90;;;;;;1788431;78;25283;-90
2023/06/09 11:02:43;;;;;;;0.90;0.90;;;19.70;99.90;;;;;;1801629;79;25257;-91
2023/06/09 11:06:13;;;;;;;1.00;1.00;;;19.30;99.90;;;;;;1796217;79;25303;-90
2023/06/09 11:12:47;;;;;;;1.30;1.20;;;19.50;99.90;;;;;;1791672;79;25327;-93
2023/06/09 11:16:01;;;;;;;2.40;1.17;;;19.90;99.90;;;;;;1774935;80;25242;-92
2023/06/09 11:18:57;;;;;;;1.20;1.20;;;20.20;99.90;;;;;;1789386;79;25176;-91
2023/06/09 11:22:04;;;;;;;1.37;1.27;;;20.40;99.90;;;;;;1799278;79;25327;-90
2023/06/09 11:24:54;;;;;;;1.10;1.00;;;20.80;99.90;;;;;;1790777;79;25282;-90
2023/06/09 11:27:45;;;;;;;1.10;1.00;;;20.90;99.90;;;;;;1780198;79;25311;-91
2023/06/09 11:30:47;;;;;;;1.43;1.00;;;20.90;99.90;;;;;;1803474;79;25295;-90
2023/06/09 11:33:53;;;;;;;1.10;1.10;;;20.70;99.90;;;;;;1796756;79;25288;-90
2023/06/09 11:36:48;;;;;;;1.10;1.10;;;20.80;99.90;;;;;;1779512;79;25245;-91
2023/06/09 11:39:38;;;;;;;1.53;1.30;;;20.30;99.90;;;;;;1797235;79;25778;-91
2023/06/09 11:42:28;;;;;;;1.17;1.10;;;20.20;99.90;;;;;;1810560;78;25317;-91
2023/06/09 11:45:20;;;;;;;3.37;1.00;;;20.40;99.90;;;;;;1827005;78;25273;-91
2023/06/09 11:48:10;;;;;;;0.97;0.97;;;20.70;99.90;;;;;;1829056;75;25236;-91
2023/06/09 12:04:43;;;;;;;1.90;1.10;;;19.90;99.90;;;;;;1920699;72;27058;-90
2023/06/09 12:11:17;;;;;;;1.07;1.00;;;20.40;99.90;;;;;;1833626;76;25255;-90
2023/06/09 12:14:12;;;;;;;1.30;1.20;;;20.50;99.90;;;;;;1854098;76;25819;-89
2023/06/09 12:17:03;;;;;;;1.10;1.10;;;20.40;99.90;;;;;;1877093;76;25201;-91
2023/06/09 12:19:56;;;;;;;2.67;1.47;;;20.50;99.90;;;;;;1869881;76;25279;-90
2023/06/09 12:22:44;;;;;;;1.43;1.30;;;20.60;99.90;;;;;;1884686;75;25268;-90
2023/06/09 12:25:38;;;;;;;1.97;1.17;;;20.60;99.90;;;;;;1877182;75;25290;-91
2023/06/09 12:28:29;;;;;;;3.50;1.27;;;20.60;99.90;;;;;;1874839;75;25362;-91
2023/06/09 12:31:22;;;;;;;1.83;1.33;;;20.70;99.90;;;;;;1843770;76;25737;-91
2023/06/09 12:34:32;;;;;;;1.43;1.30;;;20.80;99.90;;;;;;1843558;76;25237;-91
2023/06/09 12:49:36;;;;;;;1.47;1.40;;;20.70;99.90;;;;;;1826307;77;25809;-92
2023/06/09 13:04:24;;;;;;;2.93;1.40;;;20.80;99.40;;;;;;1609660;78;25862;-91
2023/06/09 14:00:56;;;;;;;1.40;1.30;;;20.20;99.90;;;;;;1840693;74;25348;-91
2023/06/09 14:12:09;;;;;;;1.77;1.60;;;19.70;99.90;;;;;;1857007;76;25331;-91
2023/06/09 14:15:37;;;;;;;2.23;1.47;;;20.20;99.90;;;;;;1864134;75;25213;-90
2023/06/09 14:18:47;;;;;;;2.60;1.60;;;20.40;98.60;;;;;;1867289;75;25236;-91
2023/06/09 14:36:39;;;;;;;1.30;1.20;;;20.20;98.20;;;;;;1984481;71;27076;-91
2023/06/09 14:42:43;;;;;;;1.60;1.50;;;20.50;98.40;;;;;;1923071;74;31855;-91
2023/06/09 14:45:58;;;;;;;2.30;1.40;;;20.60;99.80;;;;;;1903597;75;25222;-90
2023/06/09 14:56:22;;;;;;;2.13;1.50;;;20.20;97.70;;;;;;1916535;73;25315;-91
2023/06/09 14:59:16;;;;;;;4.47;1.50;;;20.10;98.60;;;;;;1928620;73;25249;-90
2023/06/09 15:02:22;;;;;;;3.20;1.67;;;20.00;99.20;;;;;;1936050;73;25700;-90
2023/06/09 15:05:19;;;;;;;2.80;1.60;;;20.20;98.20;;;;;;1919397;73;25642;-90
2023/06/09 15:11:07;;;;;;;3.90;1.80;;;20.30;98.70;;;;;;1940694;72;27003;-90
2023/06/09 15:14:02;;;;;;;2.93;1.70;;;20.10;98.00;;;;;;1922499;73;25224;-90
2023/06/09 15:16:51;;;;;;;2.13;1.60;;;20.10;98.50;;;;;;1926569;73;25869;-88
2023/06/09 15:22:19;;;;;;;1.63;1.47;;;20.50;98.80;;;;;;1945661;72;27068;-88
2023/06/09 15:25:10;;;;;;;2.00;1.80;;;20.40;98.90;;;;;;1918138;73;25322;-87
2023/06/09 15:28:00;;;;;;;1.67;1.50;;;20.30;98.40;;;;;;1926800;73;25200;-87
2023/06/09 15:30:50;;;;;;;1.43;1.33;;;20.40;99.90;;;;;;1918455;73;25224;-87
2023/06/09 15:33:39;;;;;;;3.90;1.50;;;20.50;98.20;;;;;;1931936;73;25870;-88
2023/06/09 15:36:27;;;;;;;2.73;1.70;;;20.60;99.40;;;;;;1933365;73;25232;-87
2023/06/09 15:45:34;;;;;;;1.70;1.60;;;20.10;99.90;;;;;;1998141;71;27688;-89
2023/06/09 15:48:25;;;;;;;3.40;1.30;;;20.00;99.90;;;;;;1937858;73;25976;-90
2023/06/09 15:54:20;;;;;;;1.60;1.47;;;19.90;98.80;;;;;;1952212;72;27081;-90
2023/06/09 15:57:10;;;;;;;5.27;1.50;;;20.10;98.30;;;;;;1912483;74;25371;-90
2023/06/09 16:17:27;;;;;;;3.97;1.70;;;20.20;97.30;;;;;;1942544;72;26727;-89
2023/06/09 16:20:17;;;;;;;2.40;1.70;;;20.00;97.80;;;;;;1899467;73;25251;-90
2023/06/09 16:23:08;;;;;;;3.17;1.57;;;20.00;99.30;;;;;;1936181;73;25287;-90
2023/06/09 16:26:05;;;;;;;3.40;1.57;;;19.90;98.50;;;;;;1915444;75;25192;-90
2023/06/09 16:28:55;;;;;;;2.67;1.77;;;19.90;97.20;;;;;;1925167;73;25303;-90
2023/06/09 16:36:01;;;;;;;3.20;1.90;;;20.20;97.90;;;;;;1915931;73;25212;-90
2023/06/09 16:42:22;;;;;;;2.97;1.70;;;20.20;97.90;;;;;;1972079;71;26343;-90
2023/06/09 18:09:05;;;;;;;2.03;1.87;;;19.10;98.10;;;;;;1942998;72;27626;-90
2023/06/09 18:11:55;;;;;;;3.00;1.53;;;19.10;99.90;;;;;;1921527;73;25218;-90
2023/06/09 18:14:50;;;;;;;3.17;1.87;;;19.00;99.60;;;;;;1889978;73;25263;-90
2023/06/09 18:17:43;;;;;;;3.60;1.67;;;19.00;99.90;;;;;;1895352;75;25275;-90
2023/06/09 18:20:41;;;;;;;2.67;1.70;;;19.00;99.60;;;;;;1930533;73;25768;-90
2023/06/09 18:23:51;;;;;;;1.40;1.30;;;19.10;99.60;;;;;;1919521;73;25304;-90
2023/06/09 18:27:02;;;;;;;2.80;1.50;;;19.00;99.60;;;;;;1917939;73;25268;-90
2023/06/09 18:29:56;;;;;;;2.37;1.50;;;18.90;99.80;;;;;;1915064;73;25229;-91
2023/06/09 18:32:58;;;;;;;1.60;1.50;;;19.00;99.90;;;;;;1869207;75;25309;-90
2023/06/09 18:35:52;;;;;;;1.43;1.33;;;19.00;99.90;;;;;;1934590;73;25188;-90
2023/06/09 18:38:44;;;;;;;3.37;1.70;;;19.10;99.90;;;;;;1922951;73;25672;-90
2023/06/09 18:41:42;;;;;;;5.10;1.70;;;19.20;99.90;;;;;;1917157;73;25749;-90
2023/06/09 19:55:54;;;;;;;8.00;3.03;;;19.20;99.90;;;;;;1932328;72;27118;-90
2023/06/09 19:58:43;;;;;;;5.53;2.17;;;16.70;99.90;;;;;;1894601;75;25198;-90
2023/06/09 20:06:03;;;;;;;3.40;1.87;;;16.30;99.90;;;;;;1898511;75;25225;-89
2023/06/09 20:09:46;;;;;;;3.83;1.80;;;16.10;99.90;;;;;;1883700;75;25211;-90
2023/06/09 20:13:23;;;;;;;6.67;1.90;;;15.90;99.90;;;;;;1888827;75;25294;-91
2023/06/09 20:27:18;;;;;;;3.27;1.73;;;14.80;99.90;;;;;;1911370;73;25727;-91
2023/06/09 20:30:24;;;;;;;2.00;1.90;;;14.50;99.90;;;;;;1903793;73;25290;-91
2023/06/09 20:33:14;;;;;;;1.67;1.57;;;14.40;99.90;;;;;;1924233;73;25416;-91
2023/06/09 20:36:11;;;;;;;3.33;1.50;;;14.30;99.90;;;;;;1921244;74;25799;-91
2023/06/09 20:55:46;;;;;;;2.03;1.73;;;13.80;99.90;;;;;;1967430;71;26098;-90
2023/06/09 20:58:36;;;;;;;1.60;1.50;;;13.80;99.90;;;;;;1986330;72;25218;-90
2023/06/09 21:01:26;;;;;;;5.33;1.70;;;13.70;99.90;;;;;;1990944;72;25565;-91
2023/06/09 21:04:16;;;;;;;1.73;1.50;;;13.60;99.90;;;;;;1986202;72;25314;-90
2023/06/09 21:07:09;;;;;;;2.50;1.60;;;13.60;99.90;;;;;;1983328;72;25680;-90
2023/06/09 21:10:10;;;;;;;4.00;1.60;;;13.70;99.90;;;;;;1991506;72;25302;-90
2023/06/09 21:13:05;;;;;;;2.47;1.63;;;13.80;99.90;;;;;;1965377;72;25217;-90
2023/06/09 21:16:03;;;;;;;1.67;1.57;;;13.80;99.90;;;;;;1985813;72;25267;-90
2023/06/09 21:24:25;;;;;;;2.10;1.50;;;14.00;99.90;;;;;;2028830;69;32913;-90
2023/06/09 21:27:36;;;;;;;2.10;1.23;;;14.10;99.90;;;;;;1983648;70;25231;-90
2023/06/09 21:30:28;;;;;;;1.67;1.53;;;14.00;99.90;;;;;;2051468;68;25205;-90
2023/06/09 21:33:55;;;;;;;3.70;1.50;;;14.10;99.90;;;;;;2067689;68;25284;-89
2023/06/09 21:36:52;;;;;;;1.60;1.50;;;14.10;99.90;;;;;;2040705;69;25204;-90
2023/06/09 21:56:50;;;;;;;4.47;1.57;;;14.20;99.90;;;;;;1951039;72;28487;-89
2023/06/09 22:03:11;;;;;;;3.60;1.40;;;14.20;99.90;;;;;;1918097;73;25943;-90
2023/06/09 22:06:10;;;;;;;1.40;1.30;;;14.10;99.90;;;;;;1914279;73;25738;-90
2023/06/09 22:09:04;;;;;;;2.73;1.23;;;14.10;99.90;;;;;;1922232;73;25211;-90
2023/06/09 22:11:55;;;;;;;3.70;1.40;;;14.10;99.90;;;;;;1922112;73;25612;-89
2023/06/09 22:14:53;;;;;;;10.17;1.90;;;14.10;99.90;;;;;;1917070;73;25299;-89
2023/06/09 22:17:44;;;;;;;3.10;2.00;;;14.10;99.90;;;;;;1910281;73;25257;-89
2023/06/09 22:21:03;;;;;;;2.27;1.87;;;14.00;99.90;;;;;;1926686;73;25634;-89
2023/06/09 22:24:01;;;;;;;2.10;1.60;;;14.00;99.90;;;;;;1927394;73;25250;-89
2023/06/09 22:30:38;;;;;;;3.93;1.40;;;13.90;99.90;;;;;;1915321;73;25307;-90
2023/06/09 22:33:27;;;;;;;1.10;1.07;;;13.90;99.90;;;;;;1920529;73;25236;-90
2023/06/09 22:36:23;;;;;;;1.50;1.00;;;13.80;99.90;;;;;;1918280;73;25255;-90
2023/06/09 22:39:13;;;;;;;0.93;0.93;;;13.70;99.90;;;;;;1920573;73;25198;-90
2023/06/09 22:42:13;;;;;;;0.87;0.87;;;13.80;99.90;;;;;;1903315;73;25683;-89
2023/06/09 22:45:15;;;;;;;0.83;0.83;;;13.70;99.90;;;;;;1896975;74;25220;-90
2023/06/09 22:48:12;;;;;;;1.10;0.90;;;13.70;99.90;;;;;;1909802;74;25739;-90
2023/06/09 22:51:23;;;;;;;0.90;0.90;;;13.70;99.90;;;;;;1912156;74;25152;-90
2023/06/09 22:54:18;;;;;;;0.87;0.87;;;13.60;99.90;;;;;;1914677;74;25237;-90
2023/06/09 23:00:21;;;;;;;0.93;0.93;;;13.60;99.90;;;;;;1943437;72;26959;-89
2023/06/09 23:03:11;;;;;;;2.93;1.20;;;13.50;99.90;;;;;;1919833;72;25247;-90
2023/06/09 23:06:02;;;;;;;1.27;1.00;;;13.40;99.90;;;;;;1938951;72;25589;-89
2023/06/09 23:08:58;;;;;;;2.23;1.03;;;13.40;99.90;;;;;;1929711;72;25277;-89
2023/06/09 23:11:47;;;;;;;0.70;0.70;;;13.40;99.90;;;;;;1931684;72;25676;-89
2023/06/09 23:14:39;;;;;;;0.80;0.80;;;13.40;99.90;;;;;;1936654;72;25165;-89
2023/06/09 23:17:29;;;;;;;0.90;0.70;;;13.30;99.90;;;;;;1922071;72;25176;-89
2023/06/09 23:20:25;;;;;;;0.80;0.80;;;13.30;99.90;;;;;;1927270;72;25698;-89
2023/06/09 23:23:21;;;;;;;1.00;0.90;;;13.20;99.90;;;;;;1931405;72;25167;-90
2023/06/09 23:26:18;;;;;;;0.83;0.83;;;13.20;99.90;;;;;;1908478;73;25169;-90
2023/06/09 23:29:09;;;;;;;2.97;0.80;;;13.10;99.90;;;;;;1897212;72;25705;-89
2023/06/09 23:32:00;;;;;;;1.43;0.70;;;13.10;99.90;;;;;;1896335;75;25269;-90
2023/06/09 23:34:53;;;;;;;1.73;1.10;;;13.00;99.90;;;;;;1877839;75;25316;-90
2023/06/09 23:37:43;;;;;;;1.10;0.97;;;13.00;99.90;;;;;;1844644;75;25265;-90
